Time,TemperatureF,DewpointF,PressureIn,WindDirection,WindDirectionDegrees,WindSpeedMPH,WindSpeedGustMPH,Humidity,HourlyPrecipIn,Conditions,Clouds,dailyrainin,SoftwareType,DateUTC
2013-03-01 00:00:00,30.0,28.0,29.85,ESE,104,0.0,0.0,92,0.00,,FEW044,0.00,VWS V14.01,2013-03-01 05:00:00,
2013-03-01 00:05:00,29.9,27.9,29.85,ESE,104,0.0,0.0,92,0.00,,FEW044,0.00,VWS V14.01,2013-03-01 05:05:00,
2013-03-01 00:10:00,29.8,28.0,29.85,ESE,104,0.0,0.0,93,0.00,,FEW044,0.00,VWS V14.01,2013-03-01 05:10:00,
2013-03-01 00:15:00,29.7,27.9,29.84,ESE,104,0.0,0.0,93,0.00,,FEW044,0.00,VWS V14.01,2013-03-01 05:15:00,
2013-03-01 00:20:00,29.6,27.8,29.84,ESE,104,0.0,0.0,93,0.00,,FEW044,0.00,VWS V14.01,2013-03-01 05:20:00,
2013-03-01 00:25:00,29.5,27.7,29.85,ESE,104,0.0,1.0,93,0.00,,FEW044,0.00,VWS V14.01,2013-03-01 05:25:00,
2013-03-01 00:35:00,29.3,27.8,29.84,ESE,104,0.0,0.0,94,0.00,,FEW044,0.00,VWS V14.01,2013-03-01 05:35:00,
2013-03-01 00:40:00,29.3,27.8,29.85,ESE,104,0.0,0.0,94,0.00,,FEW044,0.00,VWS V14.01,2013-03-01 05:40:00,
2013-03-01 00:50:00,29.1,27.3,29.85,ESE,104,0.0,1.0,93,0.00,,FEW044,0.00,VWS V14.01,2013-03-01 05:50:00,
2013-03-01 00:55:00,29.1,27.3,29.85,ESE,104,0.0,1.0,93,0.00,,FEW044,0.00,VWS V14.01,2013-03-01 05:55:00,
2013-03-01 01:00:00,29.0,27.2,29.85,ESE,104,0.0,0.0,93,0.00,,FEW200,0.00,VWS V14.01,2013-03-01 06:00:00,
2013-03-01 01:10:00,29.2,27.2,29.86,ESE,104,0.0,0.0,92,0.00,,FEW200,0.00,VWS V14.01,2013-03-01 06:10:00,
2013-03-01 01:20:00,29.1,27.3,29.86,ESE,104,0.0,0.0,93,0.00,,FEW200,0.00,VWS V14.01,2013-03-01 06:20:00,
2013-03-01 01:25:00,29.0,27.2,29.86,ESE,104,0.0,0.0,93,0.00,,FEW200,0.00,VWS V14.01,2013-03-01 06:25:00,
2013-03-01 01:30:00,29.0,27.5,29.86,ESE,104,0.0,1.0,94,0.00,,FEW200,0.00,VWS V14.01,2013-03-01 06:30:00,
2013-03-01 01:35:00,28.9,27.4,29.86,ESE,104,0.0,0.0,94,0.00,,FEW200,0.00,VWS V14.01,2013-03-01 06:35:00,
2013-03-01 01:45:00,28.7,27.2,29.85,ESE,104,0.0,0.0,94,0.00,,FEW200,0.00,VWS V14.01,2013-03-01 06:45:00,
2013-03-01 01:50:00,28.6,27.1,29.85,ESE,104,0.0,0.0,94,0.00,,FEW200,0.00,VWS V14.01,2013-03-01 06:50:00,
2013-03-01 01:55:00,28.6,27.1,29.85,ESE,104,0.0,0.0,94,0.00,,FEW200,0.00,VWS V14.01,2013-03-01 06:55:00,
2013-03-01 02:00:00,28.5,27.0,29.86,ESE,104,0.0,0.0,94,0.00,,FEW200,0.00,VWS V14.01,2013-03-01 07:00:00,
2013-03-01 02:10:00,28.5,27.0,29.85,ESE,104,0.0,0.0,94,0.00,,FEW200,0.00,VWS V14.01,2013-03-01 07:10:00,
2013-03-01 02:20:00,28.3,26.8,29.86,ESE,104,0.0,0.0,94,0.00,,FEW200,0.00,VWS V14.01,2013-03-01 07:20:00,
2013-03-01 02:25:00,28.3,26.8,29.85,ESE,104,0.0,0.0,94,0.00,,FEW200,0.00,VWS V14.01,2013-03-01 07:25:00,
2013-03-01 02:35:00,28.3,27.0,29.85,ESE,104,0.0,0.0,95,0.00,,FEW200,0.00,VWS V14.01,2013-03-01 07:35:00,
2013-03-01 02:40:00,28.2,27.0,29.85,ESE,104,0.0,0.0,95,0.00,,FEW200,0.00,VWS V14.01,2013-03-01 07:40:00,
2013-03-01 02:45:00,28.1,26.9,29.85,ESE,104,0.0,0.0,95,0.00,,FEW200,0.00,VWS V14.01,2013-03-01 07:45:00,
2013-03-01 02:50:00,28.1,26.9,29.85,ESE,104,0.0,0.0,95,0.00,,FEW200,0.00,VWS V14.01,2013-03-01 07:50:00,
2013-03-01 02:55:00,27.9,26.7,29.84,ESE,104,0.0,0.0,95,0.00,,FEW200,0.00,VWS V14.01,2013-03-01 07:55:00,
2013-03-01 03:00:00,27.9,26.7,29.84,ESE,104,0.0,0.0,95,0.00,,FEW200,0.00,VWS V14.01,2013-03-01 08:00:00,
2013-03-01 03:05:00,27.9,26.7,29.84,ESE,104,0.0,0.0,95,0.00,,FEW200,0.00,VWS V14.01,2013-03-01 08:05:00,
2013-03-01 03:10:00,27.9,26.7,29.84,ESE,104,0.0,0.0,95,0.00,,FEW200,0.00,VWS V14.01,2013-03-01 08:10:00,
2013-03-01 03:20:00,27.7,26.5,29.84,ESE,104,0.0,0.0,95,0.00,,FEW200,0.00,VWS V14.01,2013-03-01 08:20:00,
2013-03-01 03:30:00,27.5,26.0,29.84,ESE,104,0.0,0.0,94,0.00,,FEW200,0.00,VWS V14.01,2013-03-01 08:30:00,
2013-03-01 03:35:00,27.6,26.4,29.84,East,101,0.0,1.0,95,0.00,,FEW200,0.00,VWS V14.01,2013-03-01 08:35:00,
2013-03-01 03:40:00,27.6,26.4,29.84,East,101,0.0,0.0,95,0.00,,FEW200,0.00,VWS V14.01,2013-03-01 08:40:00,
2013-03-01 03:50:00,27.6,26.4,29.85,East,101,0.0,0.0,95,0.00,,FEW200,0.00,VWS V14.01,2013-03-01 08:50:00,
2013-03-01 03:55:00,27.5,26.3,29.85,East,101,0.0,1.0,95,0.00,,FEW200,0.00,VWS V14.01,2013-03-01 08:55:00,
2013-03-01 04:00:00,27.4,26.2,29.85,East,101,0.0,0.0,95,0.00,,FEW048,0.00,VWS V14.01,2013-03-01 09:00:00,
2013-03-01 04:10:00,27.4,26.2,29.85,East,101,0.0,1.0,95,0.00,,FEW048,0.00,VWS V14.01,2013-03-01 09:10:00,
2013-03-01 04:20:00,27.2,26.0,29.85,East,101,0.0,0.0,95,0.00,,FEW048,0.00,VWS V14.01,2013-03-01 09:20:00,
2013-03-01 04:30:00,27.1,25.9,29.85,East,101,0.0,0.0,95,0.00,,FEW048,0.00,VWS V14.01,2013-03-01 09:30:00,
2013-03-01 04:35:00,27.1,25.9,29.85,East,101,0.0,0.0,95,0.00,,FEW048,0.00,VWS V14.01,2013-03-01 09:35:00,
2013-03-01 04:40:00,27.0,25.8,29.86,East,101,0.0,0.0,95,0.00,,FEW048,0.00,VWS V14.01,2013-03-01 09:40:00,
2013-03-01 04:45:00,27.0,25.8,29.85,East,101,0.0,0.0,95,0.00,,FEW048,0.00,VWS V14.01,2013-03-01 09:45:00,
2013-03-01 04:55:00,26.8,25.6,29.87,East,101,0.0,0.0,95,0.00,,FEW048,0.00,VWS V14.01,2013-03-01 09:55:00,
2013-03-01 05:00:00,26.8,25.6,29.86,East,101,0.0,0.0,95,0.00,,FEW048,0.00,VWS V14.01,2013-03-01 10:00:00,
2013-03-01 05:05:00,26.8,25.6,29.86,East,101,0.0,0.0,95,0.00,,FEW048,0.00,VWS V14.01,2013-03-01 10:05:00,
2013-03-01 05:10:00,26.7,25.5,29.85,East,101,0.0,0.0,95,0.00,,FEW048,0.00,VWS V14.01,2013-03-01 10:10:00,
2013-03-01 05:15:00,26.7,25.5,29.85,East,101,0.0,0.0,95,0.00,,FEW048,0.00,VWS V14.01,2013-03-01 10:15:00,
2013-03-01 05:20:00,26.7,25.5,29.85,East,101,0.0,0.0,95,0.00,,FEW048,0.00,VWS V14.01,2013-03-01 10:20:00,
2013-03-01 05:25:00,26.6,25.4,29.86,East,101,0.0,0.0,95,0.00,,FEW048,0.00,VWS V14.01,2013-03-01 10:25:00,
2013-03-01 05:30:00,26.6,25.4,29.86,East,101,0.0,0.0,95,0.00,,FEW048,0.00,VWS V14.01,2013-03-01 10:30:00,
2013-03-01 05:35:00,26.5,25.3,29.86,East,101,0.0,0.0,95,0.00,,FEW048,0.00,VWS V14.01,2013-03-01 10:35:00,
2013-03-01 05:40:00,26.4,25.2,29.86,East,101,0.0,0.0,95,0.00,,FEW048,0.00,VWS V14.01,2013-03-01 10:40:00,
2013-03-01 05:45:00,26.4,25.2,29.86,East,101,0.0,0.0,95,0.00,,FEW048,0.00,VWS V14.01,2013-03-01 10:45:00,
2013-03-01 05:50:00,26.4,25.2,29.86,East,101,0.0,0.0,95,0.00,,FEW048,0.00,VWS V14.01,2013-03-01 10:50:00,
2013-03-01 05:55:00,26.3,25.1,29.86,East,101,0.0,0.0,95,0.00,,FEW048,0.00,VWS V14.01,2013-03-01 10:55:00,
2013-03-01 06:00:00,26.2,25.0,29.86,East,101,0.0,0.0,95,0.00,,FEW200,0.00,VWS V14.01,2013-03-01 11:00:00,
2013-03-01 06:05:00,26.2,25.0,29.86,East,101,0.0,0.0,95,0.00,,FEW200,0.00,VWS V14.01,2013-03-01 11:05:00,
2013-03-01 06:10:00,26.1,24.9,29.87,East,101,0.0,1.0,95,0.00,,FEW200,0.00,VWS V14.01,2013-03-01 11:10:00,
2013-03-01 06:20:00,26.0,24.8,29.87,East,101,0.0,0.0,95,0.00,,FEW200,0.00,VWS V14.01,2013-03-01 11:20:00,
2013-03-01 06:25:00,26.1,24.9,29.87,East,101,0.0,0.0,95,0.00,,FEW200,0.00,VWS V14.01,2013-03-01 11:25:00,
2013-03-01 06:30:00,26.0,24.8,29.87,East,101,0.0,0.0,95,0.00,,FEW200,0.00,VWS V14.01,2013-03-01 11:30:00,
2013-03-01 06:35:00,25.9,24.7,29.87,East,101,0.0,0.0,95,0.00,,FEW200,0.00,VWS V14.01,2013-03-01 11:35:00,
2013-03-01 06:40:00,25.9,24.7,29.87,East,101,0.0,1.0,95,0.00,,FEW200,0.00,VWS V14.01,2013-03-01 11:40:00,
2013-03-01 06:45:00,25.9,24.7,29.87,East,101,0.0,0.0,95,0.00,,FEW200,0.00,VWS V14.01,2013-03-01 11:45:00,
2013-03-01 06:50:00,25.9,24.7,29.87,East,101,0.0,0.0,95,0.00,,FEW200,0.00,VWS V14.01,2013-03-01 11:50:00,
2013-03-01 07:00:00,26.1,24.9,29.87,East,101,0.0,0.0,95,0.00,,SCT200,0.00,VWS V14.01,2013-03-01 12:00:00,
2013-03-01 07:05:00,26.1,24.9,29.88,East,101,0.0,0.0,95,0.00,,SCT200,0.00,VWS V14.01,2013-03-01 12:05:00,
2013-03-01 07:10:00,26.2,25.0,29.88,East,101,0.0,0.0,95,0.00,,SCT200,0.00,VWS V14.01,2013-03-01 12:10:00,
2013-03-01 07:20:00,27.4,25.9,29.88,East,101,0.0,0.0,94,0.00,,SCT200,0.00,VWS V14.01,2013-03-01 12:20:00,
2013-03-01 07:25:00,28.1,26.6,29.88,East,101,0.0,0.0,94,0.00,,SCT200,0.00,VWS V14.01,2013-03-01 12:25:00,
2013-03-01 07:30:00,28.5,26.7,29.88,East,101,0.0,0.0,93,0.00,,SCT200,0.00,VWS V14.01,2013-03-01 12:30:00,
2013-03-01 07:35:00,29.2,27.7,29.89,East,101,0.0,0.0,94,0.00,,SCT200,0.00,VWS V14.01,2013-03-01 12:35:00,
2013-03-01 07:40:00,29.8,27.8,29.88,East,101,0.0,1.0,92,0.00,,SCT200,0.00,VWS V14.01,2013-03-01 12:40:00,
2013-03-01 07:50:00,30.2,28.2,29.88,East,101,0.0,0.0,92,0.00,,SCT200,0.00,VWS V14.01,2013-03-01 12:50:00,
2013-03-01 07:55:00,30.8,28.8,29.88,East,101,1.0,1.0,92,0.00,,SCT200,0.00,VWS V14.01,2013-03-01 12:55:00,
2013-03-01 08:00:00,31.4,29.4,29.89,East,101,0.0,1.0,92,0.00,,SCT200,0.00,VWS V14.01,2013-03-01 13:00:00,
2013-03-01 08:05:00,32.0,29.7,29.88,East,101,0.0,1.0,91,0.00,,SCT200,0.00,VWS V14.01,2013-03-01 13:05:00,
2013-03-01 08:10:00,32.8,30.5,29.88,East,101,0.0,0.0,91,0.00,,SCT200,0.00,VWS V14.01,2013-03-01 13:10:00,
2013-03-01 08:20:00,34.4,31.8,29.88,East,101,0.0,0.0,90,0.00,,SCT200,0.00,VWS V14.01,2013-03-01 13:20:00,
2013-03-01 08:30:00,37.6,33.2,29.88,SSE,158,0.0,0.0,84,0.00,,SCT200,0.00,VWS V14.01,2013-03-01 13:30:00,
2013-03-01 08:40:00,39.2,32.3,29.88,SW,236,0.0,1.0,76,0.00,,SCT200,0.00,VWS V14.01,2013-03-01 13:40:00,
2013-03-01 08:45:00,39.6,31.3,29.88,West,262,0.0,1.0,72,0.00,,SCT200,0.00,VWS V14.01,2013-03-01 13:45:00,
2013-03-01 08:50:00,40.0,32.1,29.88,West,264,1.0,2.0,73,0.00,,SCT200,0.00,VWS V14.01,2013-03-01 13:50:00,
2013-03-01 08:55:00,40.5,31.9,29.88,West,259,0.0,1.0,71,0.00,,SCT200,0.00,VWS V14.01,2013-03-01 13:55:00,
2013-03-01 09:00:00,40.9,31.5,29.88,West,272,0.0,1.0,69,0.00,,SCT200,0.00,VWS V14.01,2013-03-01 14:00:00,
2013-03-01 09:10:00,41.6,31.1,29.88,WNW,283,0.0,2.0,66,0.00,,SCT200,0.00,VWS V14.01,2013-03-01 14:10:00,
2013-03-01 09:20:00,42.9,30.4,29.88,WNW,301,0.0,2.0,61,0.00,,SCT200,0.00,VWS V14.01,2013-03-01 14:20:00,
2013-03-01 09:25:00,43.3,30.4,29.87,WNW,297,0.0,3.0,60,0.00,,SCT200,0.00,VWS V14.01,2013-03-01 14:25:00,
2013-03-01 09:30:00,44.0,30.2,29.88,WNW,292,0.0,3.0,58,0.00,,SCT200,0.00,VWS V14.01,2013-03-01 14:30:00,
2013-03-01 09:35:00,44.3,30.5,29.88,NW,307,1.0,3.0,58,0.00,,SCT200,0.00,VWS V14.01,2013-03-01 14:35:00,
2013-03-01 09:40:00,45.0,30.7,29.88,West,281,0.0,2.0,57,0.00,,SCT200,0.00,VWS V14.01,2013-03-01 14:40:00,
2013-03-01 09:45:00,46.0,32.1,29.88,WNW,292,0.0,4.0,58,0.00,,SCT200,0.00,VWS V14.01,2013-03-01 14:45:00,
2013-03-01 09:50:00,46.3,31.0,29.88,WSW,247,3.0,7.0,55,0.00,,SCT200,0.00,VWS V14.01,2013-03-01 14:50:00,
2013-03-01 09:55:00,46.8,30.6,29.88,West,273,3.0,6.0,53,0.00,,SCT200,0.00,VWS V14.01,2013-03-01 14:55:00,
2013-03-01 10:00:00,47.0,30.8,29.88,WNW,303,1.0,6.0,53,0.00,,SCT200,0.00,VWS V14.01,2013-03-01 15:00:00,
2013-03-01 10:10:00,48.2,30.5,29.88,West,279,3.0,5.0,50,0.00,,SCT200,0.00,VWS V14.01,2013-03-01 15:10:00,
2013-03-01 10:15:00,48.2,28.9,29.87,NW,315,1.0,6.0,47,0.00,,SCT200,0.00,VWS V14.01,2013-03-01 15:15:00,
2013-03-01 10:20:00,48.4,30.6,29.87,WSW,242,0.0,3.0,50,0.00,,SCT200,0.00,VWS V14.01,2013-03-01 15:20:00,
2013-03-01 10:25:00,49.2,29.3,29.87,WNW,287,1.0,4.0,46,0.00,,SCT200,0.00,VWS V14.01,2013-03-01 15:25:00,
2013-03-01 10:30:00,49.4,29.0,29.87,NW,318,0.0,3.0,45,0.00,,SCT200,0.00,VWS V14.01,2013-03-01 15:30:00,
2013-03-01 10:35:00,49.4,28.4,29.87,NW,307,1.0,4.0,44,0.00,,SCT200,0.00,VWS V14.01,2013-03-01 15:35:00,
2013-03-01 10:40:00,50.1,29.6,29.87,NW,307,1.0,2.0,45,0.00,,SCT200,0.00,VWS V14.01,2013-03-01 15:40:00,
2013-03-01 10:50:00,49.8,26.5,29.87,NW,311,0.0,2.0,40,0.00,,SCT200,0.00,VWS V14.01,2013-03-01 15:50:00,
2013-03-01 10:55:00,49.5,28.0,29.87,West,277,0.0,2.0,43,0.00,,SCT200,0.00,VWS V14.01,2013-03-01 15:55:00,
2013-03-01 11:00:00,49.5,28.0,29.87,WNW,302,0.0,8.0,43,0.00,,SCT200,0.00,VWS V14.01,2013-03-01 16:00:00,
2013-03-01 11:10:00,49.9,27.1,29.87,NW,321,1.0,2.0,41,0.00,,SCT200,0.00,VWS V14.01,2013-03-01 16:10:00,
2013-03-01 11:15:00,49.5,26.8,29.87,WNW,298,1.0,4.0,41,0.00,,SCT200,0.00,VWS V14.01,2013-03-01 16:15:00,
2013-03-01 11:20:00,49.3,26.6,29.87,NW,308,1.0,3.0,41,0.00,,SCT200,0.00,VWS V14.01,2013-03-01 16:20:00,
2013-03-01 11:25:00,48.9,26.2,29.87,NW,304,0.0,5.0,41,0.00,,SCT200,0.00,VWS V14.01,2013-03-01 16:25:00,
2013-03-01 11:35:00,48.8,26.7,29.87,WNW,296,1.0,5.0,42,0.00,,SCT200,0.00,VWS V14.01,2013-03-01 16:35:00,
2013-03-01 11:40:00,48.8,26.7,29.87,NW,310,0.0,4.0,42,0.00,,SCT200,0.00,VWS V14.01,2013-03-01 16:40:00,
2013-03-01 11:45:00,48.9,27.4,29.87,West,268,5.0,6.0,43,0.00,,SCT200,0.00,VWS V14.01,2013-03-01 16:45:00,
2013-03-01 11:55:00,49.5,27.4,29.86,NW,322,1.0,4.0,42,0.00,,SCT200,0.00,VWS V14.01,2013-03-01 16:55:00,
2013-03-01 12:00:00,49.6,26.9,29.86,SW,234,3.0,6.0,41,0.00,,BKN055,0.00,VWS V14.01,2013-03-01 17:00:00,
2013-03-01 12:05:00,49.6,27.5,29.86,West,268,2.0,7.0,42,0.00,,BKN055,0.00,VWS V14.01,2013-03-01 17:05:00,
2013-03-01 12:10:00,49.7,27.0,29.86,WSW,244,6.0,7.0,41,0.00,,BKN055,0.00,VWS V14.01,2013-03-01 17:10:00,
2013-03-01 12:15:00,49.5,27.4,29.86,WNW,297,1.0,6.0,42,0.00,,BKN055,0.00,VWS V14.01,2013-03-01 17:15:00,
2013-03-01 12:20:00,49.2,27.1,29.85,North,355,0.0,3.0,42,0.00,,BKN055,0.00,VWS V14.01,2013-03-01 17:20:00,
2013-03-01 12:25:00,49.0,28.0,29.86,SSW,209,1.0,8.0,44,0.00,,BKN055,0.00,VWS V14.01,2013-03-01 17:25:00,
2013-03-01 12:30:00,48.9,27.4,29.85,WNW,285,1.0,2.0,43,0.00,,BKN055,0.00,VWS V14.01,2013-03-01 17:30:00,
2013-03-01 12:35:00,48.8,27.3,29.85,West,271,0.0,3.0,43,0.00,,BKN055,0.00,VWS V14.01,2013-03-01 17:35:00,
2013-03-01 12:40:00,48.8,28.4,29.85,NW,314,0.0,2.0,45,0.00,,BKN055,0.00,VWS V14.01,2013-03-01 17:40:00,
2013-03-01 12:45:00,48.5,27.6,29.85,WNW,300,2.0,5.0,44,0.00,,BKN055,0.00,VWS V14.01,2013-03-01 17:45:00,
2013-03-01 12:50:00,48.1,27.8,29.85,WNW,300,0.0,5.0,45,0.00,,BKN055,0.00,VWS V14.01,2013-03-01 17:50:00,
2013-03-01 13:00:00,48.3,28.5,29.85,WNW,288,1.0,4.0,46,0.00,,OVC065,0.00,VWS V14.01,2013-03-01 18:00:00,
2013-03-01 13:05:00,48.4,28.0,29.84,West,271,0.0,5.0,45,0.00,,OVC065,0.00,VWS V14.01,2013-03-01 18:05:00,
2013-03-01 13:10:00,48.3,28.0,29.84,West,267,1.0,6.0,45,0.00,,OVC065,0.00,VWS V14.01,2013-03-01 18:10:00,
2013-03-01 13:15:00,48.1,27.2,29.84,WSW,238,0.0,3.0,44,0.00,,OVC065,0.00,VWS V14.01,2013-03-01 18:15:00,
2013-03-01 13:20:00,48.3,27.4,29.84,NW,326,0.0,4.0,44,0.00,,OVC065,0.00,VWS V14.01,2013-03-01 18:20:00,
2013-03-01 13:25:00,48.3,26.9,29.83,WNW,290,0.0,8.0,43,0.00,,OVC065,0.00,VWS V14.01,2013-03-01 18:25:00,
2013-03-01 13:30:00,48.6,27.7,29.83,NW,314,0.0,8.0,44,0.00,,OVC065,0.00,VWS V14.01,2013-03-01 18:30:00,
2013-03-01 13:35:00,49.1,28.7,29.83,WNW,287,1.0,7.0,45,0.00,,OVC065,0.00,VWS V14.01,2013-03-01 18:35:00,
2013-03-01 13:40:00,48.9,27.4,29.83,West,272,0.0,3.0,43,0.00,,OVC065,0.00,VWS V14.01,2013-03-01 18:40:00,
2013-03-01 13:45:00,49.0,27.5,29.84,WNW,284,0.0,4.0,43,0.00,,OVC065,0.00,VWS V14.01,2013-03-01 18:45:00,
2013-03-01 13:50:00,48.9,28.5,29.83,WNW,285,1.0,10.0,45,0.00,,OVC065,0.00,VWS V14.01,2013-03-01 18:50:00,
2013-03-01 13:55:00,48.9,28.0,29.83,NW,319,0.0,5.0,44,0.00,,OVC065,0.00,VWS V14.01,2013-03-01 18:55:00,
2013-03-01 14:00:00,48.7,28.3,29.83,WNW,283,0.0,2.0,45,0.00,,OVC065,0.00,VWS V14.01,2013-03-01 19:00:00,
2013-03-01 14:10:00,48.2,27.9,29.83,WNW,288,1.0,3.0,45,0.00,,OVC065,0.00,VWS V14.01,2013-03-01 19:10:00,
2013-03-01 14:15:00,47.8,27.0,29.83,WNW,291,1.0,5.0,44,0.00,,OVC065,0.00,VWS V14.01,2013-03-01 19:15:00,
2013-03-01 14:20:00,47.7,28.0,29.83,WNW,303,1.0,2.0,46,0.00,,OVC065,0.00,VWS V14.01,2013-03-01 19:20:00,
2013-03-01 14:25:00,47.7,28.0,29.83,WNW,293,0.0,4.0,46,0.00,,OVC065,0.00,VWS V14.01,2013-03-01 19:25:00,
2013-03-01 14:30:00,47.6,28.9,29.83,WNW,295,0.0,2.0,48,0.00,,OVC065,0.00,VWS V14.01,2013-03-01 19:30:00,
2013-03-01 14:35:00,47.6,27.9,29.83,West,259,3.0,4.0,46,0.00,,OVC065,0.00,VWS V14.01,2013-03-01 19:35:00,
2013-03-01 14:40:00,47.5,28.3,29.83,WNW,287,1.0,6.0,47,0.00,,OVC065,0.00,VWS V14.01,2013-03-01 19:40:00,
2013-03-01 14:45:00,47.4,28.2,29.83,West,275,0.0,6.0,47,0.00,,OVC065,0.00,VWS V14.01,2013-03-01 19:45:00,
2013-03-01 14:50:00,47.4,28.7,29.83,West,278,0.0,4.0,48,0.00,,OVC065,0.00,VWS V14.01,2013-03-01 19:50:00,
2013-03-01 14:55:00,47.2,28.0,29.83,WSW,247,0.0,1.0,47,0.00,,OVC065,0.00,VWS V14.01,2013-03-01 19:55:00,
2013-03-01 15:00:00,47.1,27.9,29.83,West,264,3.0,5.0,47,0.00,,OVC065,0.00,VWS V14.01,2013-03-01 20:00:00,
2013-03-01 15:10:00,47.0,28.3,29.83,WNW,299,1.0,1.0,48,0.00,,OVC065,0.00,VWS V14.01,2013-03-01 20:10:00,
2013-03-01 15:15:00,46.8,28.2,29.83,WNW,300,1.0,5.0,48,0.00,,OVC065,0.00,VWS V14.01,2013-03-01 20:15:00,
2013-03-01 15:20:00,46.7,28.6,29.83,WNW,295,1.0,5.0,49,0.00,,OVC065,0.00,VWS V14.01,2013-03-01 20:20:00,
2013-03-01 15:25:00,46.6,28.0,29.84,West,271,1.0,7.0,48,0.00,,OVC065,0.00,VWS V14.01,2013-03-01 20:25:00,
2013-03-01 15:30:00,46.5,28.4,29.84,West,263,1.0,8.0,49,0.00,,OVC065,0.00,VWS V14.01,2013-03-01 20:30:00,
2013-03-01 15:35:00,46.5,28.4,29.84,SW,229,0.0,3.0,49,0.00,,OVC065,0.00,VWS V14.01,2013-03-01 20:35:00,
2013-03-01 15:40:00,46.3,27.2,29.84,NW,311,0.0,2.0,47,0.00,,OVC065,0.00,VWS V14.01,2013-03-01 20:40:00,
2013-03-01 15:45:00,46.2,28.1,29.84,WNW,295,0.0,2.0,49,0.00,,OVC065,0.00,VWS V14.01,2013-03-01 20:45:00,
2013-03-01 15:50:00,46.1,28.0,29.84,WNW,291,1.0,3.0,49,0.00,,OVC065,0.00,VWS V14.01,2013-03-01 20:50:00,
2013-03-01 16:00:00,46.1,28.0,29.84,West,265,3.0,3.0,49,0.00,,OVC065,0.00,VWS V14.01,2013-03-01 21:00:00,
2013-03-01 16:05:00,46.1,29.5,29.84,West,269,0.0,3.0,52,0.00,,OVC065,0.00,VWS V14.01,2013-03-01 21:05:00,
2013-03-01 16:10:00,46.1,28.0,29.84,WNW,288,0.0,2.0,49,0.00,,OVC065,0.00,VWS V14.01,2013-03-01 21:10:00,
2013-03-01 16:15:00,46.1,29.0,29.84,WNW,293,0.0,2.0,51,0.00,,OVC065,0.00,VWS V14.01,2013-03-01 21:15:00,
2013-03-01 16:20:00,46.0,28.4,29.84,WSW,248,0.0,4.0,50,0.00,,OVC065,0.00,VWS V14.01,2013-03-01 21:20:00,
2013-03-01 16:25:00,46.0,28.9,29.84,WSW,245,0.0,1.0,51,0.00,,OVC065,0.00,VWS V14.01,2013-03-01 21:25:00,
2013-03-01 16:30:00,45.8,28.7,29.85,WSW,237,1.0,5.0,51,0.00,,OVC065,0.00,VWS V14.01,2013-03-01 21:30:00,
2013-03-01 16:40:00,45.5,28.0,29.85,WNW,286,0.0,6.0,50,0.00,,OVC065,0.00,VWS V14.01,2013-03-01 21:40:00,
2013-03-01 16:45:00,45.5,28.9,29.85,WNW,283,0.0,2.0,52,0.00,,OVC065,0.00,VWS V14.01,2013-03-01 21:45:00,
2013-03-01 16:50:00,45.3,28.2,29.85,WNW,285,0.0,1.0,51,0.00,,OVC065,0.00,VWS V14.01,2013-03-01 21:50:00,
2013-03-01 16:55:00,45.3,28.7,29.85,WNW,284,0.0,1.0,52,0.00,,OVC065,0.00,VWS V14.01,2013-03-01 21:55:00,
2013-03-01 17:00:00,45.2,28.2,29.85,WNW,298,0.0,2.0,51,0.00,,OVC055,0.00,VWS V14.01,2013-03-01 22:00:00,
2013-03-01 17:10:00,45.0,28.9,29.85,NW,319,0.0,1.0,53,0.00,,OVC055,0.00,VWS V14.01,2013-03-01 22:10:00,
2013-03-01 17:15:00,44.9,28.8,29.86,WNW,303,0.0,1.0,53,0.00,,OVC055,0.00,VWS V14.01,2013-03-01 22:15:00,
2013-03-01 17:20:00,44.9,29.3,29.86,WNW,303,0.0,1.0,54,0.00,,OVC055,0.00,VWS V14.01,2013-03-01 22:20:00,
2013-03-01 17:25:00,44.8,29.2,29.86,West,259,0.0,1.0,54,0.00,,OVC055,0.00,VWS V14.01,2013-03-01 22:25:00,
2013-03-01 17:30:00,44.7,28.6,29.86,West,271,0.0,2.0,53,0.00,,OVC055,0.00,VWS V14.01,2013-03-01 22:30:00,
2013-03-01 17:35:00,44.6,28.5,29.86,West,269,0.0,1.0,53,0.00,,OVC055,0.00,VWS V14.01,2013-03-01 22:35:00,
2013-03-01 17:40:00,44.5,28.9,29.86,West,267,0.0,1.0,54,0.00,,OVC055,0.00,VWS V14.01,2013-03-01 22:40:00,
2013-03-01 17:45:00,44.5,28.9,29.87,West,267,0.0,1.0,54,0.00,,OVC055,0.00,VWS V14.01,2013-03-01 22:45:00,
2013-03-01 17:50:00,44.4,29.3,29.86,West,268,0.0,0.0,55,0.00,,OVC055,0.00,VWS V14.01,2013-03-01 22:50:00,
2013-03-01 17:55:00,44.3,29.2,29.86,West,267,0.0,0.0,55,0.00,,OVC055,0.00,VWS V14.01,2013-03-01 22:55:00,
2013-03-01 18:00:00,44.2,29.1,29.87,West,267,0.0,0.0,55,0.00,,OVC055,0.00,VWS V14.01,2013-03-01 23:00:00,
2013-03-01 18:05:00,44.1,29.0,29.87,West,267,0.0,0.0,55,0.00,,OVC055,0.00,VWS V14.01,2013-03-01 23:05:00,
2013-03-01 18:10:00,44.1,29.0,29.87,West,267,0.0,0.0,55,0.00,,OVC055,0.00,VWS V14.01,2013-03-01 23:10:00,
2013-03-01 18:15:00,44.0,29.3,29.87,West,267,0.0,0.0,56,0.00,,OVC055,0.00,VWS V14.01,2013-03-01 23:15:00,
2013-03-01 18:20:00,43.9,29.7,29.88,West,267,0.0,0.0,57,0.00,,OVC055,0.00,VWS V14.01,2013-03-01 23:20:00,
2013-03-01 18:25:00,43.8,29.6,29.88,West,267,0.0,0.0,57,0.00,,OVC055,0.00,VWS V14.01,2013-03-01 23:25:00,
2013-03-01 18:30:00,43.7,29.0,29.88,West,267,0.0,0.0,56,0.00,,OVC055,0.00,VWS V14.01,2013-03-01 23:30:00,
2013-03-01 18:35:00,43.7,29.5,29.88,West,267,0.0,0.0,57,0.00,,OVC055,0.00,VWS V14.01,2013-03-01 23:35:00,
2013-03-01 18:40:00,43.6,29.4,29.88,West,267,0.0,0.0,57,0.00,,OVC055,0.00,VWS V14.01,2013-03-01 23:40:00,
2013-03-01 18:45:00,43.6,29.4,29.88,West,267,0.0,0.0,57,0.00,,OVC055,0.00,VWS V14.01,2013-03-01 23:45:00,
2013-03-01 18:50:00,43.5,31.4,29.88,West,267,0.0,0.0,62,0.00,,OVC055,0.00,VWS V14.01,2013-03-01 23:50:00,
2013-03-01 18:55:00,43.3,30.8,29.88,West,267,0.0,0.0,61,0.00,,OVC055,0.00,VWS V14.01,2013-03-01 23:55:00,
2013-03-01 19:00:00,43.2,32.6,29.89,West,267,0.0,0.0,66,0.00,,OVC055,0.00,VWS V14.01,2013-03-02 00:00:00,
2013-03-01 19:05:00,43.0,32.1,29.89,West,267,0.0,0.0,65,0.00,,OVC055,0.00,VWS V14.01,2013-03-02 00:05:00,
2013-03-01 19:10:00,42.8,32.6,29.89,West,268,0.0,0.0,67,0.00,,OVC055,0.00,VWS V14.01,2013-03-02 00:10:00,
2013-03-01 19:15:00,42.6,32.0,29.89,West,267,0.0,0.0,66,0.00,,OVC055,0.00,VWS V14.01,2013-03-02 00:15:00,
2013-03-01 19:20:00,42.4,32.2,29.90,West,267,0.0,0.0,67,0.00,,OVC055,0.00,VWS V14.01,2013-03-02 00:20:00,
2013-03-01 19:30:00,42.2,32.8,29.90,West,267,0.0,0.0,69,0.00,,OVC055,0.00,VWS V14.01,2013-03-02 00:30:00,
2013-03-01 19:35:00,42.1,32.3,29.90,West,267,0.0,0.0,68,0.00,,OVC055,0.00,VWS V14.01,2013-03-02 00:35:00,
2013-03-01 19:40:00,41.9,32.5,29.90,West,267,0.0,0.0,69,0.00,,OVC055,0.00,VWS V14.01,2013-03-02 00:40:00,
2013-03-01 19:45:00,41.8,33.1,29.90,West,267,0.0,0.0,71,0.00,,OVC055,0.00,VWS V14.01,2013-03-02 00:45:00,
2013-03-01 19:50:00,41.7,33.3,29.90,West,267,0.0,0.0,72,0.00,,OVC055,0.00,VWS V14.01,2013-03-02 00:50:00,
2013-03-01 19:55:00,41.5,32.8,29.90,West,267,0.0,0.0,71,0.00,,OVC055,0.00,VWS V14.01,2013-03-02 00:55:00,
2013-03-01 20:00:00,41.4,33.4,29.90,West,267,0.0,0.0,73,0.00,,OVC050,0.00,VWS V14.01,2013-03-02 01:00:00,
2013-03-01 20:05:00,41.3,33.0,29.90,West,267,0.0,0.0,72,0.00,,OVC050,0.00,VWS V14.01,2013-03-02 01:05:00,
2013-03-01 20:10:00,41.2,33.5,29.90,West,267,0.0,0.0,74,0.00,,OVC050,0.00,VWS V14.01,2013-03-02 01:10:00,
2013-03-01 20:15:00,41.1,33.8,29.90,West,267,0.0,0.0,75,0.00,,OVC050,0.00,VWS V14.01,2013-03-02 01:15:00,
2013-03-01 20:20:00,41.0,34.3,29.90,West,267,0.0,0.0,77,0.00,,OVC050,0.00,VWS V14.01,2013-03-02 01:20:00,
2013-03-01 20:25:00,40.9,33.9,29.90,West,267,0.0,0.0,76,0.00,,OVC050,0.00,VWS V14.01,2013-03-02 01:25:00,
2013-03-01 20:30:00,40.8,34.2,29.90,West,268,0.0,0.0,77,0.00,,OVC050,0.00,VWS V14.01,2013-03-02 01:30:00,
2013-03-01 20:35:00,40.7,33.7,29.90,West,267,0.0,0.0,76,0.00,,OVC050,0.00,VWS V14.01,2013-03-02 01:35:00,
2013-03-01 20:40:00,40.7,33.7,29.91,West,267,0.0,0.0,76,0.00,,OVC050,0.00,VWS V14.01,2013-03-02 01:40:00,
2013-03-01 20:45:00,40.6,33.6,29.91,West,267,0.0,0.0,76,0.00,,OVC050,0.00,VWS V14.01,2013-03-02 01:45:00,
2013-03-01 20:50:00,40.6,33.6,29.91,West,267,0.0,0.0,76,0.00,,OVC050,0.00,VWS V14.01,2013-03-02 01:50:00,
2013-03-01 20:55:00,40.5,34.2,29.91,West,267,0.0,0.0,78,0.00,,OVC050,0.00,VWS V14.01,2013-03-02 01:55:00,
2013-03-01 21:00:00,40.5,34.2,29.90,West,268,0.0,0.0,78,0.00,,OVC050,0.00,VWS V14.01,2013-03-02 02:00:00,
2013-03-01 21:05:00,40.4,34.4,29.91,West,267,0.0,0.0,79,0.00,,OVC050,0.00,VWS V14.01,2013-03-02 02:05:00,
2013-03-01 21:10:00,40.4,34.4,29.91,West,267,0.0,0.0,79,0.00,,OVC050,0.00,VWS V14.01,2013-03-02 02:10:00,
2013-03-01 21:15:00,40.3,34.3,29.91,West,267,0.0,0.0,79,0.00,,OVC050,0.00,VWS V14.01,2013-03-02 02:15:00,
2013-03-01 21:20:00,40.3,33.3,29.91,West,268,0.0,0.0,76,0.00,,OVC050,0.00,VWS V14.01,2013-03-02 02:20:00,
2013-03-01 21:25:00,40.6,33.6,29.91,West,267,0.0,0.0,76,0.00,,OVC050,0.00,VWS V14.01,2013-03-02 02:25:00,
2013-03-01 21:30:00,40.6,33.6,29.91,West,267,0.0,0.0,76,0.00,,OVC050,0.00,VWS V14.01,2013-03-02 02:30:00,
2013-03-01 21:35:00,40.6,33.6,29.91,West,268,0.0,0.0,76,0.00,,OVC050,0.00,VWS V14.01,2013-03-02 02:35:00,
2013-03-01 21:45:00,40.6,34.3,29.91,West,267,0.0,0.0,78,0.00,,OVC050,0.00,VWS V14.01,2013-03-02 02:45:00,
2013-03-01 21:50:00,40.5,33.5,29.91,West,267,0.0,1.0,76,0.00,,OVC050,0.00,VWS V14.01,2013-03-02 02:50:00,
2013-03-01 22:00:00,40.7,32.0,29.91,West,267,0.0,0.0,71,0.00,,OVC060,0.00,VWS V14.01,2013-03-02 03:00:00,
2013-03-01 22:05:00,40.9,31.9,29.91,West,267,0.0,0.0,70,0.00,,OVC060,0.00,VWS V14.01,2013-03-02 03:05:00,
2013-03-01 22:10:00,41.0,32.3,29.91,West,267,0.0,0.0,71,0.00,,OVC060,0.00,VWS V14.01,2013-03-02 03:10:00,
2013-03-01 22:15:00,41.1,31.7,29.91,West,265,0.0,1.0,69,0.00,,OVC060,0.00,VWS V14.01,2013-03-02 03:15:00,
2013-03-01 22:20:00,41.1,31.4,29.91,West,265,0.0,1.0,68,0.00,,OVC060,0.00,VWS V14.01,2013-03-02 03:20:00,
2013-03-01 22:25:00,41.3,30.4,29.91,WSW,258,0.0,2.0,65,0.00,,OVC060,0.00,VWS V14.01,2013-03-02 03:25:00,
2013-03-01 22:30:00,41.3,30.1,29.91,West,281,1.0,2.0,64,0.00,,OVC060,0.00,VWS V14.01,2013-03-02 03:30:00,
2013-03-01 22:35:00,41.4,29.8,29.91,WSW,257,0.0,1.0,63,0.00,,OVC060,0.00,VWS V14.01,2013-03-02 03:35:00,
2013-03-01 22:40:00,41.3,29.7,29.91,WSW,257,0.0,1.0,63,0.00,,OVC060,0.00,VWS V14.01,2013-03-02 03:40:00,
2013-03-01 22:45:00,41.2,30.0,29.91,WSW,257,0.0,0.0,64,0.00,,OVC060,0.00,VWS V14.01,2013-03-02 03:45:00,
2013-03-01 22:50:00,41.1,29.5,29.91,WSW,257,0.0,0.0,63,0.00,,OVC060,0.00,VWS V14.01,2013-03-02 03:50:00,
2013-03-01 23:00:00,41.1,29.5,29.91,West,262,0.0,1.0,63,0.00,,BKN060,0.00,VWS V14.01,2013-03-02 04:00:00,
2013-03-01 23:05:00,41.1,29.5,29.91,WSW,257,0.0,1.0,63,0.00,,BKN060,0.00,VWS V14.01,2013-03-02 04:05:00,
2013-03-01 23:10:00,41.0,29.8,29.90,West,259,0.0,1.0,64,0.00,,BKN060,0.00,VWS V14.01,2013-03-02 04:10:00,
2013-03-01 23:15:00,40.8,30.0,29.91,West,259,0.0,0.0,65,0.00,,BKN060,0.00,VWS V14.01,2013-03-02 04:15:00,
2013-03-01 23:20:00,40.5,29.3,29.91,West,259,0.0,0.0,64,0.00,,BKN060,0.00,VWS V14.01,2013-03-02 04:20:00,
2013-03-01 23:25:00,40.3,29.1,29.91,West,259,0.0,1.0,64,0.00,,BKN060,0.00,VWS V14.01,2013-03-02 04:25:00,
2013-03-01 23:30:00,40.2,27.8,29.91,West,259,0.0,1.0,61,0.00,,BKN060,0.00,VWS V14.01,2013-03-02 04:30:00,
2013-03-01 23:35:00,40.2,27.4,29.91,West,272,1.0,1.0,60,0.00,,BKN060,0.00,VWS V14.01,2013-03-02 04:35:00,
2013-03-01 23:45:00,39.8,26.2,29.91,West,269,0.0,0.0,58,0.00,,BKN060,0.00,VWS V14.01,2013-03-02 04:45:00,
2013-03-01 23:50:00,39.7,26.1,29.91,West,269,0.0,0.0,58,0.00,,BKN060,0.00,VWS V14.01,2013-03-02 04:50:00,
2013-03-01 23:55:00,39.4,26.3,29.91,West,269,0.0,1.0,59,0.00,,BKN060,0.00,VWS V14.01,2013-03-02 04:55:00,